createdAt,value
2023-03-01T00:03:09.079Z,15.47
2023-03-01T00:08:05.840Z,15.63
2023-03-01T00:13:00.806Z,15.70
2023-03-01T00:17:56.059Z,16.42
2023-03-01T00:22:51.570Z,16.43
2023-03-01T00:27:46.673Z,16.57
2023-03-01T00:32:39.892Z,16.95
2023-03-01T00:37:33.083Z,16.47
2023-03-01T00:42:23.765Z,16.73
2023-03-01T00:47:15.233Z,16.90
2023-03-01T00:52:11.995Z,16.02
2023-03-01T00:57:11.346Z,15.82
2023-03-01T01:02:04.813Z,15.93
2023-03-01T01:06:55.980Z,16.35
2023-03-01T01:11:47.418Z,16.58
2023-03-01T01:16:41.080Z,16.73
2023-03-01T01:21:39.513Z,16.77
2023-03-01T01:26:34.447Z,16.63
2023-03-01T01:31:25.908Z,16.10
2023-03-01T01:36:29.482Z,18.08
2023-03-01T01:41:28.861Z,18.00
2023-03-01T01:46:34.657Z,17.27
2023-03-01T01:51:39.899Z,17.17
2023-03-01T01:56:33.083Z,16.38
2023-03-01T02:01:34.100Z,16.90
2023-03-01T02:06:52.498Z,16.67
2023-03-01T02:11:53.698Z,17.23
2023-03-01T02:16:44.462Z,18.40
2023-03-01T02:21:42.583Z,20.20
2023-03-01T02:26:54.497Z,21.05
2023-03-01T02:31:55.589Z,20.30
2023-03-01T02:36:55.326Z,20.77
2023-03-01T02:41:57.268Z,20.83
2023-03-01T02:46:56.110Z,21.13
2023-03-01T02:52:12.952Z,20.85
2023-03-01T02:57:14.416Z,21.40
2023-03-01T03:02:07.946Z,20.10
2023-03-01T03:06:58.310Z,20.52
2023-03-01T03:11:54.175Z,19.42
2023-03-01T03:17:00.934Z,19.27
2023-03-01T03:21:58.740Z,19.47
2023-03-01T03:26:49.990Z,19.50
2023-03-01T03:31:42.712Z,19.83
2023-03-01T03:36:39.571Z,19.15
2023-03-01T03:41:32.429Z,18.17
2023-03-01T03:46:22.470Z,18.27
2023-03-01T03:51:22.936Z,18.75
2023-03-01T03:56:19.228Z,18.52
2023-03-01T04:01:18.212Z,19.05
2023-03-01T04:06:16.226Z,18.92
2023-03-01T04:11:25.126Z,18.80
2023-03-01T04:16:20.661Z,17.98
2023-03-01T04:21:13.310Z,17.48
2023-03-01T04:26:13.543Z,18.33
2023-03-01T04:31:23.119Z,17.85
2023-03-01T04:36:24.505Z,16.75
2023-03-01T04:41:16.270Z,18.23
2023-03-01T04:46:07.470Z,18.00
2023-03-01T04:50:57.568Z,17.65
2023-03-01T04:55:58.130Z,18.47
2023-03-01T05:00:56.247Z,17.85
2023-03-01T05:05:49.045Z,18.37
2023-03-01T05:10:48.755Z,17.60
2023-03-01T05:15:48.949Z,17.67
2023-03-01T05:20:43.524Z,16.73
2023-03-01T05:25:35.235Z,17.65
2023-03-01T05:30:25.705Z,17.60
2023-03-01T05:35:26.682Z,17.50
2023-03-01T05:40:26.476Z,17.77
2023-03-01T05:45:30.776Z,17.30
2023-03-01T05:50:26.513Z,16.93
2023-03-01T05:55:24.540Z,15.95
2023-03-01T06:00:16.852Z,15.48
2023-03-01T06:05:12.401Z,14.80
2023-03-01T06:10:08.859Z,15.90
2023-03-01T06:15:07.525Z,15.43
2023-03-01T06:20:11.508Z,14.70
2023-03-01T06:25:13.518Z,14.30
2023-03-01T06:30:13.956Z,14.35
2023-03-01T06:35:05.846Z,14.63
2023-03-01T06:39:57.701Z,13.10
2023-03-01T06:44:52.853Z,13.65
2023-03-01T06:49:43.386Z,14.88
2023-03-01T06:54:36.954Z,15.35
2023-03-01T06:59:32.851Z,14.50
2023-03-01T07:04:27.143Z,14.60
2023-03-01T07:09:25.840Z,14.95
2023-03-01T07:14:16.349Z,14.20
2023-03-01T07:19:14.105Z,14.18
2023-03-01T07:24:10.702Z,13.45
2023-03-01T07:29:05.542Z,13.07
2023-03-01T07:34:01.524Z,12.70
2023-03-01T07:38:55.570Z,13.52
2023-03-01T07:43:49.505Z,13.30
2023-03-01T07:48:42.491Z,12.27
2023-03-01T07:53:35.351Z,11.55
2023-03-01T07:58:29.926Z,12.50
2023-03-01T08:03:23.058Z,10.77
2023-03-01T08:08:19.845Z,11.35
2023-03-01T08:13:14.789Z,12.03
2023-03-01T08:18:08.035Z,9.75
2023-03-01T08:23:05.159Z,9.70
2023-03-01T08:28:01.599Z,10.03
2023-03-01T08:32:57.543Z,7.53
2023-03-01T08:37:50.732Z,8.18
2023-03-01T08:42:45.355Z,8.35
2023-03-01T08:47:40.684Z,6.72
2023-03-01T08:52:35.591Z,6.68
2023-03-01T08:57:26.687Z,6.55
2023-03-01T09:02:24.000Z,6.50
2023-03-01T09:07:36.011Z,6.15
2023-03-01T09:12:31.737Z,6.20
2023-03-01T09:17:24.408Z,6.20
2023-03-01T09:22:18.756Z,6.37
2023-03-01T09:27:15.271Z,5.45
2023-03-01T09:32:09.347Z,4.35
2023-03-01T09:37:09.659Z,4.32
2023-03-01T09:42:09.212Z,3.72
2023-03-01T09:47:10.523Z,4.13
2023-03-01T09:52:17.746Z,3.73
2023-03-01T09:57:25.570Z,3.67
2023-03-01T10:02:30.538Z,3.07
2023-03-01T10:07:38.174Z,2.97
2023-03-01T10:12:37.308Z,2.80
2023-03-01T10:17:50.900Z,2.58
2023-03-01T10:22:48.742Z,1.57
2023-03-01T10:27:47.918Z,2.13
2023-03-01T10:32:39.058Z,2.28
2023-03-01T10:37:29.445Z,2.03
2023-03-01T10:42:33.501Z,2.05
2023-03-01T10:47:32.657Z,2.20
2023-03-01T10:52:25.844Z,1.80
2023-03-01T10:57:44.250Z,1.80
2023-03-01T11:02:39.775Z,2.05
2023-03-01T11:07:31.762Z,1.42
2023-03-01T11:12:25.866Z,1.10
2023-03-01T11:17:22.424Z,1.60
2023-03-01T11:22:23.765Z,1.60
2023-03-01T11:27:30.517Z,1.80
2023-03-01T11:32:28.831Z,1.67
2023-03-01T11:37:46.684Z,1.75
2023-03-01T11:43:13.463Z,1.50
2023-03-01T11:49:00.030Z,1.52
2023-03-01T11:54:01.727Z,1.40
2023-03-01T11:59:19.045Z,1.80
2023-03-01T12:04:59.122Z,1.30
2023-03-01T12:10:24.266Z,1.30
2023-03-01T12:15:47.795Z,1.20
2023-03-01T12:21:02.782Z,1.80
2023-03-01T12:26:08.545Z,1.75
2023-03-01T12:31:30.122Z,1.90
2023-03-01T12:36:47.866Z,1.73
2023-03-01T12:41:56.337Z,1.98
2023-03-01T12:47:05.677Z,2.17
2023-03-01T12:52:05.798Z,2.05
2023-03-01T12:57:04.267Z,2.30
2023-03-01T13:02:09.357Z,2.85
2023-03-01T13:07:31.509Z,2.55
2023-03-01T13:12:52.803Z,2.60
2023-03-01T13:17:55.752Z,1.77
2023-03-01T13:22:54.943Z,2.20
2023-03-01T13:27:49.325Z,1.23
2023-03-01T13:32:59.582Z,1.42
2023-03-01T13:37:56.845Z,1.43
2023-03-01T13:43:04.263Z,1.17
2023-03-01T13:48:06.876Z,1.42
2023-03-01T13:53:26.741Z,1.20
2023-03-01T13:58:36.559Z,1.10
2023-03-01T14:03:34.718Z,1.38
2023-03-01T14:08:38.811Z,1.48
2023-03-01T14:13:43.561Z,1.73
2023-03-01T14:18:43.255Z,1.45
2023-03-01T14:23:40.715Z,1.63
2023-03-01T14:28:34.896Z,1.48
2023-03-01T14:33:43.113Z,1.38
2023-03-01T14:38:42.525Z,1.80
2023-03-01T14:43:36.003Z,1.80
2023-03-01T14:48:26.991Z,1.70
2023-03-01T14:53:37.633Z,1.63
2023-03-01T14:58:41.300Z,1.70
2023-03-01T15:03:40.744Z,2.03
2023-03-01T15:08:37.003Z,1.50
2023-03-01T15:13:35.807Z,1.50
2023-03-01T15:18:32.984Z,1.40
2023-03-01T15:23:28.733Z,1.65
2023-03-01T15:28:28.540Z,1.35
2023-03-01T15:33:33.199Z,1.80
2023-03-01T15:38:58.511Z,1.90
2023-03-01T15:43:59.089Z,1.90
2023-03-01T15:48:55.923Z,1.70
2023-03-01T15:54:03.172Z,1.70
2023-03-01T15:58:53.497Z,1.48
2023-03-01T16:03:43.591Z,2.03
2023-03-01T16:08:33.590Z,1.80
2023-03-01T16:13:30.110Z,1.93
2023-03-01T16:18:20.831Z,1.90
2023-03-01T16:23:17.149Z,1.77
2023-03-01T16:28:16.262Z,2.05
2023-03-01T16:33:26.390Z,2.10
2023-03-01T16:38:26.375Z,1.83
2023-03-01T16:43:16.637Z,2.08
2023-03-01T16:48:13.165Z,1.50
2023-03-01T16:53:08.655Z,1.90
2023-03-01T16:58:03.593Z,1.87
2023-03-01T17:03:05.856Z,2.03
2023-03-01T17:08:09.701Z,1.90
2023-03-01T17:13:03.366Z,2.10
2023-03-01T17:17:53.630Z,2.15
2023-03-01T17:22:43.707Z,2.17
2023-03-01T17:27:50.477Z,2.30
2023-03-01T17:32:42.883Z,2.00
2023-03-01T17:37:40.287Z,1.80
2023-03-01T17:42:35.411Z,2.23
2023-03-01T17:47:33.157Z,2.23
2023-03-01T17:52:25.074Z,2.60
2023-03-01T17:57:20.446Z,2.65
2023-03-01T18:02:17.350Z,2.85
2023-03-01T18:07:15.606Z,3.00
2023-03-01T18:12:12.756Z,2.75
2023-03-01T18:17:12.369Z,3.03
2023-03-01T18:22:04.046Z,2.72
2023-03-01T18:27:00.281Z,2.78
2023-03-01T18:31:53.089Z,3.00
2023-03-01T18:37:00.567Z,4.30
2023-03-01T18:42:06.648Z,4.00
2023-03-01T18:46:58.676Z,3.83
2023-03-01T18:51:52.161Z,3.78
2023-03-01T18:56:46.020Z,2.80
2023-03-01T19:01:49.388Z,5.13
2023-03-01T19:06:43.437Z,5.40
2023-03-01T19:11:34.188Z,3.20
2023-03-01T19:16:27.727Z,2.88
2023-03-01T19:21:21.762Z,3.20
2023-03-01T19:26:14.253Z,3.43
2023-03-01T19:31:07.076Z,4.50
2023-03-01T19:35:59.240Z,4.07
2023-03-01T19:40:53.024Z,3.85
2023-03-01T19:45:43.101Z,4.20
2023-03-01T19:50:38.782Z,4.00
2023-03-01T19:55:33.923Z,3.90
2023-03-01T20:00:29.372Z,3.88
2023-03-01T20:05:24.193Z,3.78
2023-03-01T20:10:16.078Z,3.92
2023-03-01T20:15:09.039Z,3.75
2023-03-01T20:20:01.885Z,3.78
2023-03-01T20:24:54.330Z,4.70
2023-03-01T20:29:46.018Z,5.37
2023-03-01T20:34:35.756Z,4.87
2023-03-01T20:39:28.310Z,5.73
2023-03-01T20:44:19.231Z,4.63
2023-03-01T20:49:11.165Z,4.15
2023-03-01T20:54:01.246Z,4.45
2023-03-01T20:58:55.287Z,4.00
2023-03-01T21:03:47.400Z,3.88
2023-03-01T21:08:38.545Z,4.27
2023-03-01T21:13:29.894Z,4.97
2023-03-01T21:18:22.848Z,4.50
2023-03-01T21:23:14.878Z,5.25
2023-03-01T21:28:04.565Z,5.43
2023-03-01T21:32:54.313Z,6.28
2023-03-01T21:37:46.723Z,7.28
2023-03-01T21:42:36.958Z,7.15
2023-03-01T21:47:26.712Z,6.43
2023-03-01T21:52:17.350Z,6.03
2023-03-01T21:57:09.647Z,6.00
2023-03-01T22:01:59.552Z,5.37
2023-03-01T22:06:50.091Z,5.15
2023-03-01T22:11:41.505Z,5.20
2023-03-01T22:16:36.591Z,5.20
2023-03-01T22:21:27.097Z,4.78
2023-03-01T22:26:25.636Z,4.53
2023-03-01T22:31:15.817Z,5.50
2023-03-01T22:36:11.907Z,5.10
2023-03-01T22:41:02.880Z,4.90
2023-03-01T22:45:55.037Z,4.90
2023-03-01T22:50:45.408Z,5.33
2023-03-01T22:55:39.165Z,5.40
2023-03-01T23:00:30.043Z,5.75
2023-03-01T23:05:21.461Z,5.55
2023-03-01T23:10:14.173Z,5.60
2023-03-01T23:15:14.791Z,5.35
2023-03-01T23:20:18.748Z,6.47
2023-03-01T23:25:15.254Z,5.97
2023-03-01T23:30:21.989Z,6.28
2023-03-01T23:35:14.098Z,6.30
2023-03-01T23:40:14.603Z,7.57
2023-03-01T23:45:27.530Z,7.18
2023-03-01T23:50:19.754Z,7.30
2023-03-01T23:55:16.032Z,7.38
